^^
Your Local Weather - Clay, NY Station Historical Data
Daily Summary for February 12, 2018 Units:  Metric    English   Both
« Previous Day
Next Day »
Daily Weekly Monthly Yearly Custom
  High: Low: Average:
Temperature: 1.2 °C -6.1 °C -2.5 °C
Dew Point: -0.7 °C -10.8 °C -6.4 °C
Humidity: 87% 66% 74%
Wind Speed: 11.3km/h 0km/h 5km/h
Wind Gust: 27.4km/h - -
Wind- - WNW
Pressure: 1040.9 hPa 1016.8 hPa -
Precipitation: 0.25 mm    
Historical Graphs
 
 
Tabular Data for February 12, 2018
Time Temperature Dew Point Pressure Wind Wind Speed Wind Gust Humidity Rainfall Rate (Hourly) solar
00:02 1.2 °C -0.7 °C 1016.8 hPa West 8 km/h 11.3 km/h 87% 0 mm 0 W/m2
00:08 1.2 °C -0.8 °C 1017.2 hPa WNW 9.7 km/h 19.3 km/h 87% 0 mm 0 W/m2
00:14 1.2 °C -0.8 °C 1017.2 hPa WNW 8 km/h 9.7 km/h 87% 0 mm 0 W/m2
00:20 1.2 °C -0.8 °C 1017.2 hPa NW 8 km/h 8 km/h 87% 0 mm 0 W/m2
00:26 1.1 °C -0.8 °C 1017.2 hPa NW 8 km/h 12.9 km/h 87% 0 mm 0 W/m2
00:32 1.1 °C -0.8 °C 1017.5 hPa WNW 8 km/h 8 km/h 87% 0 mm 0 W/m2
00:38 1.1 °C -1 °C 1017.8 hPa WNW 6.4 km/h 17.7 km/h 86% 0 mm 0 W/m2
00:44 1.1 °C -1 °C 1017.8 hPa WNW 8 km/h 27.4 km/h 86% 0 mm 0 W/m2
00:50 1.1 °C -1.2 °C 1017.8 hPa NNW 9.7 km/h 11.3 km/h 85% 0 mm 0 W/m2
00:56 0.9 °C -1.3 °C 1018.2 hPa WNW 9.7 km/h 16.1 km/h 85% 0 mm 0 W/m2
01:02 0.9 °C -1.3 °C 1018.2 hPa WNW 8 km/h 9.7 km/h 85% 0 mm 0 W/m2
01:08 0.8 °C -1.4 °C 1018.5 hPa WNW 6.4 km/h 9.7 km/h 85% 0 mm 0 W/m2
01:14 0.8 °C -1.4 °C 1018.8 hPa WNW 4.8 km/h 12.9 km/h 85% 0 mm 0 W/m2
01:20 0.7 °C -1.7 °C 1018.8 hPa WNW 6.4 km/h 9.7 km/h 84% 0 mm 0 W/m2
01:26 0.6 °C -1.8 °C 1019.2 hPa NW 8 km/h 9.7 km/h 84% 0 mm 0 W/m2
01:32 0.4 °C -1.9 °C 1019.5 hPa NW 8 km/h 9.7 km/h 84% 0 mm 0 W/m2
01:38 0.3 °C -2.2 °C 1019.5 hPa WNW 9.7 km/h 12.9 km/h 83% 0 mm 0 W/m2
01:44 0.3 °C -2.3 °C 1019.9 hPa NNW 8 km/h 11.3 km/h 83% 0 mm 0 W/m2
01:50 0.1 °C -2.6 °C 1019.9 hPa WNW 8 km/h 8 km/h 82% 0 mm 0 W/m2
01:56 0 °C -2.7 °C 1020.5 hPa WNW 8 km/h 11.3 km/h 82% 0 mm 0 W/m2
02:02 -0.2 °C -2.9 °C 1020.9 hPa WNW 9.7 km/h 11.3 km/h 82% 0 mm 0 W/m2
02:08 -0.3 °C -3.2 °C 1020.9 hPa WNW 11.3 km/h 11.3 km/h 81% 0 mm 0 W/m2
02:14 -0.3 °C -3.2 °C 1020.9 hPa NW 9.7 km/h 9.7 km/h 81% 0 mm 0 W/m2
02:20 -0.4 °C -3.3 °C 1020.9 hPa NW 8 km/h 8 km/h 81% 0 mm 0 W/m2
02:26 -0.5 °C -3.3 °C 1021.2 hPa WNW 6.4 km/h 8 km/h 81% 0 mm 0 W/m2
02:32 -0.6 °C -3.4 °C 1021.2 hPa NW 6.4 km/h 6.4 km/h 81% 0 mm 0 W/m2
02:38 -0.6 °C -3.4 °C 1021.2 hPa NW 6.4 km/h 9.7 km/h 81% 0 mm 0 W/m2
02:44 -0.7 °C -3.6 °C 1021.2 hPa NW 6.4 km/h 6.4 km/h 81% 0 mm 0 W/m2
02:50 -0.8 °C -3.7 °C 1021.6 hPa NNW 6.4 km/h 6.4 km/h 81% 0 mm 0 W/m2
02:56 -1 °C -4 °C 1021.9 hPa NW 8 km/h 11.3 km/h 80% 0 mm 0 W/m2
03:02 -1.2 °C -4.2 °C 1022.2 hPa West 8 km/h 8 km/h 80% 0 mm 0 W/m2
03:08 -1.2 °C -4.4 °C 1022.6 hPa WNW 8 km/h 9.7 km/h 79% 0 mm 0 W/m2
03:14 -1.3 °C -4.5 °C 1022.9 hPa NW 6.4 km/h 9.7 km/h 79% 0 mm 0 W/m2
03:20 -1.4 °C -4.6 °C 1022.6 hPa NW 6.4 km/h 8 km/h 79% 0 mm 0 W/m2
03:26 -1.6 °C -4.7 °C 1022.9 hPa WNW 8 km/h 12.9 km/h 79% 0 mm 0 W/m2
03:32 -1.7 °C -5 °C 1022.9 hPa WNW 11.3 km/h 11.3 km/h 78% 0 mm 0 W/m2
03:38 -1.7 °C -5.1 °C 1023.2 hPa NW 8 km/h 16.1 km/h 78% 0 mm 0 W/m2
03:44 -1.7 °C -5.1 °C 1023.2 hPa NW 6.4 km/h 9.7 km/h 78% 0 mm 0 W/m2
03:50 -1.8 °C -4.9 °C 1023.6 hPa NNW 6.4 km/h 11.3 km/h 79% 0 mm 0 W/m2
03:56 -1.9 °C -5.2 °C 1023.6 hPa NNW 6.4 km/h 12.9 km/h 78% 0 mm 0 W/m2
04:02 -1.9 °C -5.1 °C 1023.6 hPa NNW 3.2 km/h 4.8 km/h 79% 0 mm 0 W/m2
04:08 -1.9 °C -5.3 °C 1023.9 hPa NNW 3.2 km/h 4.8 km/h 78% 0 mm 0 W/m2
04:14 -1.9 °C -5.3 °C 1024.3 hPa NW 3.2 km/h 3.2 km/h 78% 0 mm 0 W/m2
04:20 -1.9 °C -5.3 °C 1024.3 hPa WNW 4.8 km/h 4.8 km/h 78% 0 mm 0 W/m2
04:26 -2 °C -5.3 °C 1024.3 hPa NW 3.2 km/h 4.8 km/h 78% 0 mm 0 W/m2
04:32 -2 °C -5.3 °C 1024.6 hPa NW 1.6 km/h 3.2 km/h 78% 0 mm 0 W/m2
04:38 -2 °C -5.3 °C 1024.6 hPa NW 1.6 km/h 4.8 km/h 78% 0 mm 0 W/m2
04:44 -1.9 °C -5.3 °C 1024.6 hPa NW 1.6 km/h 4.8 km/h 78% 0 mm 0 W/m2
04:50 -1.9 °C -5.3 °C 1024.6 hPa NW 1.6 km/h 1.6 km/h 78% 0 mm 0 W/m2
04:56 -1.9 °C -5.3 °C 1024.6 hPa NW 1.6 km/h 3.2 km/h 78% 0 mm 0 W/m2
05:02 -1.9 °C -5.3 °C 1024.9 hPa Calm   1.6 km/h 78% 0 mm 0 W/m2
05:08 -1.9 °C -5.3 °C 1024.9 hPa Calm   4.8 km/h 78% 0 mm 0 W/m2
05:14 -1.9 °C -5.3 °C 1024.9 hPa NW 1.6 km/h 1.6 km/h 78% 0 mm 0 W/m2
05:20 -1.9 °C -5.3 °C 1024.9 hPa Calm     78% 0 mm 0 W/m2
05:26 -1.9 °C -5.1 °C 1024.9 hPa Calm   1.6 km/h 79% 0 mm 0 W/m2
05:32 -1.9 °C -5.1 °C 1025.6 hPa Calm   1.6 km/h 79% 0 mm 0 W/m2
05:38 -1.9 °C -5.3 °C 1025.6 hPa Calm   1.6 km/h 78% 0 mm 0 W/m2
05:40 -1.9 °C -5.3 °C 1025.3 hPa Calm     78% 0 mm 0 W/m2
05:46 -1.9 °C -5.3 °C 1025.6 hPa Calm     78% 0 mm 0 W/m2
05:52 -1.9 °C -5.1 °C 1025.6 hPa Calm     79% 0 mm 0 W/m2
05:58 -1.9 °C -5.1 °C 1026 hPa Calm     79% 0 mm 0 W/m2
06:04 -1.9 °C -5.1 °C 1026.3 hPa Calm     79% 0 mm 0 W/m2
06:10 -1.9 °C -5.1 °C 1026.3 hPa Calm     79% 0 mm 0 W/m2
06:16 -1.9 °C -5.1 °C 1026.3 hPa Calm     79% 0 mm 0 W/m2
06:22 -1.9 °C -4.9 °C 1026.3 hPa Calm     80% 0 mm 0 W/m2
06:28 -1.9 °C -4.9 °C 1026.3 hPa Calm     80% 0 mm 0 W/m2
06:34 -1.9 °C -4.9 °C 1026.6 hPa Calm     80% 0 mm 0 W/m2
06:40 -1.9 °C -4.9 °C 1026.3 hPa Calm     80% 0 mm 0 W/m2
06:46 -1.9 °C -4.9 °C 1026.6 hPa Calm     80% 0 mm 0 W/m2
06:52 -1.8 °C -4.7 °C 1026.6 hPa Calm     81% 0 mm 0 W/m2
06:58 -1.8 °C -4.7 °C 1026.6 hPa Calm     81% 0 mm 0 W/m2
07:04 -1.8 °C -4.7 °C 1026.6 hPa Calm     81% 0 mm 0 W/m2
07:10 -1.8 °C -4.7 °C 1026.6 hPa Calm     81% 0 mm 0 W/m2
07:16 -1.8 °C -4.6 °C 1026.6 hPa Calm     81% 0 mm 0 W/m2
07:22 -1.7 °C -4.6 °C 1026.6 hPa Calm   3.2 km/h 81% 0 mm 0 W/m2
07:28 -1.7 °C -4.5 °C 1026.6 hPa Calm   3.2 km/h 81% 0 mm 5 W/m2
07:34 -1.6 °C -4.4 °C 1027 hPa NW 1.6 km/h 3.2 km/h 81% 0 mm 9 W/m2
07:40 -1.6 °C -4.4 °C 1027 hPa WSW 3.2 km/h 3.2 km/h 81% 0 mm 11 W/m2
07:46 -1.4 °C -4.4 °C 1027 hPa West 3.2 km/h 3.2 km/h 80% 0 mm 16 W/m2
07:52 -1.4 °C -4.6 °C 1027.7 hPa West 3.2 km/h 4.8 km/h 79% 0 mm 23 W/m2
07:58 -1.3 °C -4.7 °C 1027.7 hPa WNW 3.2 km/h 4.8 km/h 78% 0 mm 25 W/m2
08:04 -1.3 °C -4.8 °C 1027.7 hPa WSW 3.2 km/h 3.2 km/h 77% 0 mm 28 W/m2
08:10 -1.3 °C -4.8 °C 1028 hPa WNW 3.2 km/h 3.2 km/h 77% 0 mm 12 W/m2
08:16 -1.3 °C -4.8 °C 1028 hPa WNW 3.2 km/h 4.8 km/h 77% 0 mm 12 W/m2
08:22 -1.3 °C -5 °C 1028.3 hPa WNW 4.8 km/h 4.8 km/h 76% 0 mm 12 W/m2
08:28 -1.3 °C -5 °C 1028.3 hPa WNW 3.2 km/h 4.8 km/h 76% 0 mm 12 W/m2
08:34 -1.4 °C -5.1 °C 1028.3 hPa WNW 3.2 km/h 4.8 km/h 76% 0 mm 46 W/m2
08:40 -1.4 °C -5.1 °C 1028.3 hPa West 3.2 km/h 3.2 km/h 76% 0 mm 62 W/m2
08:46 -1.4 °C -5.1 °C 1028.7 hPa WNW 4.8 km/h 4.8 km/h 76% 0 mm 70 W/m2
08:52 -1.4 °C -5.1 °C 1028.7 hPa WNW 4.8 km/h 6.4 km/h 76% 0 mm 81 W/m2
08:58 -1.4 °C -5.2 °C 1029 hPa WNW 6.4 km/h 11.3 km/h 75% 0 mm 109 W/m2
09:04 -1.3 °C -5.2 °C 1029 hPa WNW 8 km/h 9.7 km/h 75% 0 mm 98 W/m2
09:10 -1.4 °C -5.3 °C 1029.3 hPa WNW 8 km/h 8 km/h 75% 0 mm 93 W/m2
09:16 -1.6 °C -5.4 °C 1029.3 hPa West 8 km/h 11.3 km/h 75% 0 mm 98 W/m2
09:22 -1.6 °C -5.4 °C 1029.3 hPa WNW 6.4 km/h 9.7 km/h 75% 0 mm 123 W/m2
09:28 -1.6 °C -5.6 °C 1029.7 hPa NW 6.4 km/h 9.7 km/h 74% 0 mm 88 W/m2
09:34 -1.6 °C -5.8 °C 1029.7 hPa West 8 km/h 9.7 km/h 73% 0 mm 84 W/m2
09:40 -1.6 °C -5.8 °C 1029.7 hPa NW 6.4 km/h 6.4 km/h 73% 0 mm 116 W/m2
09:46 -1.5 °C -5.9 °C 1029.7 hPa WNW 6.4 km/h 6.4 km/h 72% 0 mm 149 W/m2
09:52 -1.4 °C -5.9 °C 1029.7 hPa WNW 6.4 km/h 6.4 km/h 71% 0 mm 188 W/m2
09:58 -1.3 °C -6.1 °C 1029.7 hPa West 8 km/h 14.5 km/h 70% 0 mm 250 W/m2
10:04 -1.2 °C -6 °C 1030 hPa NW 8 km/h 11.3 km/h 70% 0 mm 234 W/m2
10:10 -1.3 °C -5.9 °C 1030 hPa WNW 8 km/h 11.3 km/h 71% 0 mm 174 W/m2
10:16 -1.5 °C -6.1 °C 1030.4 hPa WNW 8 km/h 11.3 km/h 71% 0 mm 146 W/m2
10:22 -1.6 °C -5.9 °C 1030.4 hPa NW 8 km/h 11.3 km/h 72% 0 mm 134 W/m2
10:28 -1.7 °C -6.1 °C 1030.4 hPa West 8 km/h 11.3 km/h 72% 0 mm 121 W/m2
10:34 -1.7 °C -6.1 °C 1030.4 hPa West 6.4 km/h 9.7 km/h 72% 0 mm 202 W/m2
10:40 -1.7 °C -6.1 °C 1030.4 hPa WSW 8 km/h 8 km/h 72% 0 mm 204 W/m2
10:46 -1.6 °C -5.9 °C 1030.7 hPa WNW 6.4 km/h 9.7 km/h 72% 0 mm 193 W/m2
10:52 -1.5 °C -5.9 °C 1030.7 hPa WNW 6.4 km/h 9.7 km/h 72% 0 mm 188 W/m2
10:58 -1.5 °C -6.1 °C 1030.7 hPa West 6.4 km/h 9.7 km/h 71% 0 mm 257 W/m2
11:04 -1.6 °C -6.5 °C 1030.7 hPa West 8 km/h 20.9 km/h 69% 0 mm 265 W/m2
11:10 -1.4 °C -6.2 °C 1030.7 hPa WNW 6.4 km/h 6.4 km/h 70% 0 mm 225 W/m2
11:16 -1 °C -6.3 °C 1030.7 hPa WNW 6.4 km/h 8 km/h 67% 0 mm 791 W/m2
11:22 -1.1 °C -6.2 °C 1030.7 hPa NW 8 km/h 9.7 km/h 68% 0 mm 323 W/m2
11:28 -1.2 °C -6.7 °C 1031 hPa WNW 8 km/h 9.7 km/h 66% 0 mm 301 W/m2
11:34 -1.1 °C -6.4 °C 1031 hPa WNW 6.4 km/h 8 km/h 67% 0 mm 244 W/m2
11:40 -1.3 °C -6.8 °C 1031 hPa NW 8 km/h 9.7 km/h 66% 0 mm 373 W/m2
11:46 -1.1 °C -6.4 °C 1031 hPa West 8 km/h 9.7 km/h 67% 0 mm 294 W/m2
11:52 -1.2 °C -6.3 °C 1031 hPa NW 6.4 km/h 11.3 km/h 68% 0 mm 179 W/m2
11:58 -1.4 °C -6.6 °C 1031 hPa WNW 8 km/h 12.9 km/h 68% 0 mm 218 W/m2
12:04 -1.4 °C -6.4 °C 1031.4 hPa NW 8 km/h 11.3 km/h 69% 0 mm 176 W/m2
12:10 -1.4 °C -6.4 °C 1031 hPa West 6.4 km/h 6.4 km/h 69% 0 mm 295 W/m2
12:16 -1.3 °C -6.3 °C 1031.4 hPa WSW 4.8 km/h 8 km/h 69% 0 mm 195 W/m2
12:22 -1.3 °C -6.3 °C 1031.4 hPa NW 6.4 km/h 6.4 km/h 69% 0 mm 127 W/m2
12:28 -1.4 °C -6.4 °C 1031.4 hPa WNW 6.4 km/h 16.1 km/h 69% 0 mm 104 W/m2
12:34 -1.6 °C -6.3 °C 1031.4 hPa WNW 6.4 km/h 16.1 km/h 70% 0 mm 109 W/m2
12:40 -1.7 °C -6.2 °C 1031.4 hPa NW 6.4 km/h 16.1 km/h 71% 0 mm 118 W/m2
12:46 -1.9 °C -6.1 °C 1031.7 hPa WNW 9.7 km/h 16.1 km/h 73% 0 mm 128 W/m2
12:52 -1.9 °C -5.9 °C 1031.4 hPa NW 8 km/h 9.7 km/h 74% 0 mm 162 W/m2
12:58 -1.9 °C -5.6 °C 1031.4 hPa WNW 6.4 km/h 9.7 km/h 76% 0 mm 125 W/m2
13:04 -2.2 °C -5.7 °C 1031.7 hPa WNW 6.4 km/h 6.4 km/h 77% 0 mm 120 W/m2
13:10 -2.3 °C -5.5 °C 1031.7 hPa WNW 8 km/h 8 km/h 79% 0 mm 163 W/m2
13:16 -2.4 °C -5.4 °C 1032.1 hPa NW 8 km/h 8 km/h 80% 0 mm 121 W/m2
13:22 -2.6 °C -5.4 °C 1032.1 hPa NW 8 km/h 11.3 km/h 81% 0 mm 141 W/m2
13:28 -2.6 °C -5.3 °C 1032.1 hPa WNW 8 km/h 11.3 km/h 82% 0 mm 165 W/m2
13:34 -2.6 °C -5.3 °C 1032.1 hPa WNW 8 km/h 9.7 km/h 82% 0 mm 162 W/m2
13:40 -2.6 °C -5.1 °C 1032.1 hPa WNW 8 km/h 8 km/h 83% 0 mm 209 W/m2
13:46 -2.6 °C -5.1 °C 1032.1 hPa WNW 6.4 km/h 9.7 km/h 83% 0 mm 204 W/m2
13:52 -2.6 °C -5.1 °C 1032.1 hPa WNW 6.4 km/h 6.4 km/h 83% 0 mm 199 W/m2
13:58 -2.5 °C -5 °C 1032.4 hPa WNW 6.4 km/h 6.4 km/h 83% 0 mm 178 W/m2
14:04 -2.6 °C -5.1 °C 1032.4 hPa WNW 6.4 km/h 8 km/h 83% 0 mm 153 W/m2
14:10 -2.7 °C -5.4 °C 1032.4 hPa WNW 8 km/h 8 km/h 82% 0 mm 174 W/m2
14:16 -2.7 °C -5.6 °C 1032.4 hPa NW 8 km/h 12.9 km/h 81% 0 mm 209 W/m2
14:22 -2.7 °C -5.8 °C 1032.4 hPa NW 6.4 km/h 6.4 km/h 79% 0 mm 190 W/m2
14:28 -2.7 °C -6 °C 1032.4 hPa NW 6.4 km/h 9.7 km/h 78% 0 mm 185 W/m2
14:34 -2.7 °C -6 °C 1032.7 hPa WNW 8 km/h 9.7 km/h 78% 0 mm 366 W/m2
14:40 -2.6 °C -5.9 °C 1033.1 hPa WNW 8 km/h 8 km/h 78% 0 mm 257 W/m2
14:46 -2.3 °C -5.6 °C 1033.1 hPa West 6.4 km/h 8 km/h 78% 0 mm 244 W/m2
14:52 -2.4 °C -5.9 °C 1033.1 hPa WNW 6.4 km/h 6.4 km/h 77% 0 mm 241 W/m2
14:58 -2.7 °C -6.2 °C 1033.4 hPa West 8 km/h 17.7 km/h 77% 0 mm 162 W/m2
15:04 -2.8 °C -6.5 °C 1033.4 hPa NW 9.7 km/h 12.9 km/h 76% 0 mm 197 W/m2
15:10 -2.4 °C -6.6 °C 1033.4 hPa WNW 9.7 km/h 9.7 km/h 73% 0 mm 512 W/m2
15:16 -2.4 °C -6.8 °C 1033.4 hPa WNW 8 km/h 9.7 km/h 72% 0 mm 221 W/m2
15:22 -2.6 °C -6.9 °C 1033.4 hPa NW 9.7 km/h 9.7 km/h 72% 0 mm 105 W/m2
15:28 -2.5 °C -6.8 °C 1033.7 hPa WNW 6.4 km/h 9.7 km/h 72% 0 mm 139 W/m2
15:34 -2.6 °C -7.1 °C 1034.1 hPa NNW 6.4 km/h 9.7 km/h 71% 0 mm 123 W/m2
15:40 -2.6 °C -7.3 °C 1034.1 hPa WNW 6.4 km/h 9.7 km/h 70% 0 mm 107 W/m2
15:46 -2.7 °C -7.4 °C 1034.1 hPa WNW 8 km/h 9.7 km/h 70% 0 mm 81 W/m2
15:52 -2.7 °C -7.8 °C 1034.4 hPa WNW 8 km/h 11.3 km/h 68% 0 mm 63 W/m2
16:00 -2.8 °C -7.7 °C 1034.8 hPa WNW 8 km/h 8 km/h 69% 0 mm 86 W/m2
16:06 -2.8 °C -7.7 °C 1034.8 hPa WNW 6.4 km/h 11.3 km/h 69% 0 mm 70 W/m2
16:12 -2.9 °C -8 °C 1034.8 hPa WNW 8 km/h 12.9 km/h 68% 0 mm 79 W/m2
16:18 -2.9 °C -7.8 °C 1034.8 hPa WNW 8 km/h 12.9 km/h 69% 0 mm 77 W/m2
16:24 -2.9 °C -8 °C 1034.8 hPa WNW 6.4 km/h 8 km/h 68% 0 mm 58 W/m2
16:30 -3 °C -8.1 °C 1035.1 hPa NW 8 km/h 16.1 km/h 68% 0 mm 67 W/m2
16:36 -3.1 °C -8.1 °C 1035.1 hPa WNW 8 km/h 16.1 km/h 68% 0 mm 47 W/m2
16:42 -3.1 °C -8.2 °C 1035.1 hPa NW 8 km/h 9.7 km/h 68% 0 mm 39 W/m2
16:48 -3.2 °C -8.2 °C 1035.1 hPa WNW 6.4 km/h 9.7 km/h 68% 0 mm 32 W/m2
16:54 -3.2 °C -8.2 °C 1035.4 hPa WNW 6.4 km/h 6.4 km/h 68% 0 mm 26 W/m2
17:00 -3.2 °C -8.3 °C 1035.4 hPa NW 6.4 km/h 6.4 km/h 68% 0 mm 23 W/m2
17:06 -3.3 °C -8.3 °C 1035.8 hPa West 6.4 km/h 12.9 km/h 68% 0 mm 18 W/m2
17:12 -3.3 °C -8.4 °C 1035.8 hPa NW 8 km/h 8 km/h 68% 0 mm 12 W/m2
17:18 -3.4 °C -8.4 °C 1035.8 hPa NW 6.4 km/h 8 km/h 68% 0 mm 9 W/m2
17:24 -3.5 °C -8.7 °C 1035.8 hPa WNW 6.4 km/h 8 km/h 67% 0 mm 7 W/m2
17:30 -3.6 °C -8.6 °C 1035.8 hPa NW 4.8 km/h 9.7 km/h 68% 0 mm 0 W/m2
17:36 -3.7 °C -8.9 °C 1036.1 hPa NW 4.8 km/h 9.7 km/h 67% 0 mm 0 W/m2
17:42 -3.7 °C -8.9 °C 1036.1 hPa WNW 8 km/h 8 km/h 67% 0 mm 0 W/m2
17:48 -3.8 °C -9 °C 1036.1 hPa WNW 6.4 km/h 9.7 km/h 67% 0 mm 0 W/m2
17:54 -3.9 °C -9.1 °C 1036.5 hPa NW 6.4 km/h 9.7 km/h 67% 0 mm 0 W/m2
18:00 -3.9 °C -9.1 °C 1036.5 hPa WNW 6.4 km/h 6.4 km/h 67% 0 mm 0 W/m2
18:06 -3.9 °C -9.1 °C 1036.8 hPa WNW 6.4 km/h 9.7 km/h 67% 0 mm 0 W/m2
18:12 -3.9 °C -9.2 °C 1036.8 hPa WNW 6.4 km/h 6.4 km/h 67% 0 mm 0 W/m2
18:18 -4 °C -9.2 °C 1037.1 hPa WNW 6.4 km/h 14.5 km/h 67% 0 mm 0 W/m2
18:24 -4.1 °C -9.3 °C 1037.1 hPa NNW 6.4 km/h 8 km/h 67% 0 mm 0 W/m2
18:30 -4.1 °C -9.3 °C 1037.1 hPa WNW 4.8 km/h 6.4 km/h 67% 0 mm 0 W/m2
18:36 -4.2 °C -9.4 °C 1037.1 hPa WNW 4.8 km/h 9.7 km/h 67% 0 mm 0 W/m2
18:42 -4.2 °C -9.4 °C 1037.1 hPa NW 4.8 km/h 8 km/h 67% 0 mm 0 W/m2
18:48 -4.3 °C -9.6 °C 1037.1 hPa WNW 3.2 km/h 8 km/h 67% 0 mm 0 W/m2
18:54 -4.4 °C -9.7 °C 1037.5 hPa NW 3.2 km/h 4.8 km/h 67% 0 mm 0 W/m2
19:00 -4.4 °C -9.6 °C 1037.5 hPa WNW 3.2 km/h 3.2 km/h 67% 0 mm 0 W/m2
19:06 -4.4 °C -9.7 °C 1037.5 hPa NW 3.2 km/h 4.8 km/h 67% 0 mm 0 W/m2
19:12 -4.4 °C -9.7 °C 1037.8 hPa WNW 3.2 km/h 3.2 km/h 67% 0 mm 0 W/m2
19:18 -4.4 °C -9.6 °C 1037.8 hPa WNW 3.2 km/h 3.2 km/h 67% 0 mm 0 W/m2
19:24 -4.4 °C -9.6 °C 1037.8 hPa West 3.2 km/h 8 km/h 67% 0 mm 0 W/m2
19:30 -4.4 °C -9.7 °C 1037.8 hPa NW 3.2 km/h 3.2 km/h 67% 0 mm 0 W/m2
19:36 -4.4 °C -9.7 °C 1037.8 hPa NW 3.2 km/h 8 km/h 67% 0 mm 0 W/m2
19:42 -4.5 °C -9.7 °C 1037.8 hPa NW 3.2 km/h 8 km/h 67% 0 mm 0 W/m2
19:48 -4.4 °C -9.7 °C 1038.1 hPa NW 3.2 km/h 8 km/h 67% 0 mm 0 W/m2
19:54 -4.5 °C -9.7 °C 1038.1 hPa NW 3.2 km/h 3.2 km/h 67% 0 mm 0 W/m2
20:00 -4.6 °C -9.8 °C 1038.1 hPa NW 3.2 km/h 3.2 km/h 67% 0 mm 0 W/m2
20:06 -4.6 °C -9.8 °C 1038.5 hPa WNW 3.2 km/h 8 km/h 67% 0 mm 0 W/m2
20:12 -4.7 °C -9.9 °C 1038.5 hPa WNW 3.2 km/h 4.8 km/h 67% 0 mm 0 W/m2
20:18 -4.8 °C -10 °C 1038.5 hPa NW 1.6 km/h 6.4 km/h 67% 0 mm 0 W/m2
20:24 -4.8 °C -10 °C 1038.5 hPa WNW 3.2 km/h 6.4 km/h 67% 0 mm 0 W/m2
20:30 -5 °C -10.2 °C 1038.5 hPa WNW 1.6 km/h 1.6 km/h 67% 0 mm 0 W/m2
20:36 -5.1 °C -10.1 °C 1038.5 hPa WNW 1.6 km/h 4.8 km/h 68% 0 mm 0 W/m2
20:42 -5.2 °C -10.2 °C 1038.5 hPa WNW 1.6 km/h 3.2 km/h 68% 0 mm 0 W/m2
20:48 -5.3 °C -10.3 °C 1038.8 hPa WNW 1.6 km/h 4.8 km/h 68% 0 mm 0 W/m2
20:54 -5.4 °C -10.4 °C 1038.8 hPa WNW 1.6 km/h 4.8 km/h 68% 0 mm 0 W/m2
21:00 -5.6 °C -10.6 °C 1038.8 hPa WNW 1.6 km/h 3.2 km/h 68% 0 mm 0 W/m2
21:06 -5.6 °C -10.4 °C 1039.2 hPa Calm   3.2 km/h 69% 0 mm 0 W/m2
21:12 -5.7 °C -10.5 °C 1039.2 hPa Calm     69% 0 mm 0 W/m2
21:18 -5.8 °C -10.6 °C 1039.5 hPa Calm     69% 0 mm 0 W/m2
21:24 -5.9 °C -10.7 °C 1039.5 hPa Calm     69% 0 mm 0 W/m2
21:30 -6 °C -10.6 °C 1039.5 hPa Calm     70% 0 mm 0 W/m2
21:36 -6.1 °C -10.7 °C 1039.5 hPa Calm   1.6 km/h 70% 0 mm 0 W/m2
21:42 -6 °C -10.4 °C 1039.8 hPa Calm     71% 0 mm 0 W/m2
21:48 -5.9 °C -10.3 °C 1039.8 hPa Calm   1.6 km/h 71% 0 mm 0 W/m2
21:54 -5.8 °C -10.3 °C 1039.8 hPa Calm   3.2 km/h 71% 0 mm 0 W/m2
22:00 -5.8 °C -10.2 °C 1039.8 hPa Calm     71% 0 mm 0 W/m2
22:06 -5.7 °C -10.2 °C 1040.2 hPa Calm   3.2 km/h 71% 0 mm 0 W/m2
22:12 -5.5 °C -9.9 °C 1040.2 hPa WNW 1.6 km/h 1.6 km/h 71% 0 mm 0 W/m2
22:18 -5.4 °C -9.8 °C 1040.2 hPa WNW 1.6 km/h 1.6 km/h 71% 0 mm 0 W/m2
22:24 -5.3 °C -9.9 °C 1040.2 hPa WNW 1.6 km/h 3.2 km/h 70% 0 mm 0 W/m2
22:30 -5.3 °C -9.9 °C 1040.2 hPa WNW 1.6 km/h 1.6 km/h 70% 0 mm 0 W/m2
22:36 -5.3 °C -9.9 °C 1040.5 hPa WNW 1.6 km/h 3.2 km/h 70% 0 mm 0 W/m2
22:42 -5.3 °C -9.9 °C 1040.5 hPa WNW 1.6 km/h 1.6 km/h 70% 0 mm 0 W/m2
22:48 -5.3 °C -10.1 °C 1040.5 hPa NW 3.2 km/h 6.4 km/h 69% 0 mm 0 W/m2
22:54 -5.3 °C -10.1 °C 1040.5 hPa NW 3.2 km/h 6.4 km/h 69% 0 mm 0 W/m2
23:00 -5.3 °C -10.3 °C 1040.5 hPa NNW 3.2 km/h 4.8 km/h 68% 0 mm 0 W/m2
23:06 -5.4 °C -10.4 °C 1040.5 hPa NW 4.8 km/h 8 km/h 68% 0 mm 0 W/m2
23:12 -5.4 °C -10.6 °C 1040.9 hPa NW 4.8 km/h 4.8 km/h 67% 0 mm 0 W/m2
23:18 -5.4 °C -10.6 °C 1040.5 hPa West 3.2 km/h 4.8 km/h 67% 0 mm 0 W/m2
23:24 -5.4 °C -10.6 °C 1040.5 hPa North 3.2 km/h 6.4 km/h 67% 0 mm 0 W/m2
23:30 -5.5 °C -10.7 °C 1040.5 hPa WNW 3.2 km/h 3.2 km/h 67% 0 mm 0 W/m2
23:36 -5.6 °C -10.7 °C 1040.5 hPa NNW 3.2 km/h 12.9 km/h 67% 0 mm 0 W/m2
23:42 -5.6 °C -10.7 °C 1040.5 hPa NW 3.2 km/h 3.2 km/h 67% 0 mm 0 W/m2
23:48 -5.6 °C -10.7 °C 1040.9 hPa NW 3.2 km/h 6.4 km/h 67% 0 mm 0 W/m2
23:54 -5.6 °C -10.8 °C 1040.9 hPa NNW 3.2 km/h 4.8 km/h 67% 0 mm 0 W/m2
Country Meadow, Clay, NY, USA
Compliments of Weather Underground - 2 mb